sensor_id;sensor_type;location;lat;lon;timestamp;P1;P2;P0
52290;PMS5003;39663;45.432;28.050;2023-05-10T00:00:11;16.0;14.0;
52290;PMS5003;39663;45.432;28.050;2023-05-10T00:00:43;14.0;14.0;
52290;PMS5003;39663;45.432;28.050;2023-05-10T00:01:14;17.0;16.0;
52290;PMS5003;39663;45.432;28.050;2023-05-10T00:01:46;14.0;14.0;
52290;PMS5003;39663;45.432;28.050;2023-05-10T00:02:18;14.0;14.0;
52290;PMS5003;39663;45.432;28.050;2023-05-10T00:02:49;11.0;11.0;
52290;PMS5003;39663;45.432;28.050;2023-05-10T00:03:21;14.0;13.0;
52290;PMS5003;39663;45.432;28.050;2023-05-10T00:03:52;12.0;12.0;
52290;PMS5003;39663;45.432;28.050;2023-05-10T00:04:24;18.0;15.0;
52290;PMS5003;39663;45.432;28.050;2023-05-10T00:04:56;13.0;13.0;
52290;PMS5003;39663;45.432;28.050;2023-05-10T00:05:27;17.0;14.0;
52290;PMS5003;39663;45.432;28.050;2023-05-10T00:05:59;14.0;13.0;
52290;PMS5003;39663;45.432;28.050;2023-05-10T00:06:31;15.0;15.0;
52290;PMS5003;39663;45.432;28.050;2023-05-10T00:07:02;13.0;13.0;
52290;PMS5003;39663;45.432;28.050;2023-05-10T00:07:34;14.0;13.0;
52290;PMS5003;39663;45.432;28.050;2023-05-10T00:08:05;15.0;13.0;
52290;PMS5003;39663;45.432;28.050;2023-05-10T00:08:37;17.0;16.0;
52290;PMS5003;39663;45.432;28.050;2023-05-10T00:09:08;15.0;14.0;
52290;PMS5003;39663;45.432;28.050;2023-05-10T00:09:40;17.0;15.0;
52290;PMS5003;39663;45.432;28.050;2023-05-10T00:10:11;14.0;13.0;
52290;PMS5003;39663;45.432;28.050;2023-05-10T00:10:43;16.0;16.0;
52290;PMS5003;39663;45.432;28.050;2023-05-10T00:11:15;18.0;16.0;
52290;PMS5003;39663;45.432;28.050;2023-05-10T00:11:46;15.0;15.0;
52290;PMS5003;39663;45.432;28.050;2023-05-10T00:12:18;19.0;16.0;
52290;PMS5003;39663;45.432;28.050;2023-05-10T00:12:49;19.0;19.0;
52290;PMS5003;39663;45.432;28.050;2023-05-10T00:13:21;18.0;16.0;
52290;PMS5003;39663;45.432;28.050;2023-05-10T00:13:52;17.0;17.0;
52290;PMS5003;39663;45.432;28.050;2023-05-10T00:14:24;18.0;18.0;
52290;PMS5003;39663;45.432;28.050;2023-05-10T00:14:56;16.0;16.0;
52290;PMS5003;39663;45.432;28.050;2023-05-10T00:15:28;17.0;15.0;
52290;PMS5003;39663;45.432;28.050;2023-05-10T00:16:00;15.0;14.0;
52290;PMS5003;39663;45.432;28.050;2023-05-10T00:16:31;17.0;17.0;
52290;PMS5003;39663;45.432;28.050;2023-05-10T00:17:03;15.0;15.0;
52290;PMS5003;39663;45.432;28.050;2023-05-10T00:17:34;17.0;15.0;
52290;PMS5003;39663;45.432;28.050;2023-05-10T00:18:06;21.0;20.0;
52290;PMS5003;39663;45.432;28.050;2023-05-10T00:18:38;15.0;15.0;
52290;PMS5003;39663;45.432;28.050;2023-05-10T00:19:10;18.0;17.0;
52290;PMS5003;39663;45.432;28.050;2023-05-10T00:19:42;16.0;15.0;
52290;PMS5003;39663;45.432;28.050;2023-05-10T00:20:13;17.0;16.0;
52290;PMS5003;39663;45.432;28.050;2023-05-10T00:20:45;21.0;18.0;
52290;PMS5003;39663;45.432;28.050;2023-05-10T00:21:16;21.0;18.0;
52290;PMS5003;39663;45.432;28.050;2023-05-10T00:21:48;18.0;17.0;
52290;PMS5003;39663;45.432;28.050;2023-05-10T00:22:19;19.0;17.0;
52290;PMS5003;39663;45.432;28.050;2023-05-10T00:22:51;16.0;14.0;
52290;PMS5003;39663;45.432;28.050;2023-05-10T00:23:22;16.0;16.0;
52290;PMS5003;39663;45.432;28.050;2023-05-10T00:23:54;14.0;14.0;
52290;PMS5003;39663;45.432;28.050;2023-05-10T00:24:25;21.0;17.0;
52290;PMS5003;39663;45.432;28.050;2023-05-10T00:24:57;15.0;14.0;
52290;PMS5003;39663;45.432;28.050;2023-05-10T00:25:28;15.0;15.0;
52290;PMS5003;39663;45.432;28.050;2023-05-10T00:26:00;13.0;13.0;
52290;PMS5003;39663;45.432;28.050;2023-05-10T00:26:31;17.0;17.0;
52290;PMS5003;39663;45.432;28.050;2023-05-10T00:27:03;23.0;21.0;
52290;PMS5003;39663;45.432;28.050;2023-05-10T00:27:34;17.0;17.0;
52290;PMS5003;39663;45.432;28.050;2023-05-10T00:28:06;18.0;16.0;
52290;PMS5003;39663;45.432;28.050;2023-05-10T00:28:37;14.0;14.0;
52290;PMS5003;39663;45.432;28.050;2023-05-10T00:29:09;15.0;15.0;
52290;PMS5003;39663;45.432;28.050;2023-05-10T00:29:40;21.0;20.0;
52290;PMS5003;39663;45.432;28.050;2023-05-10T00:30:12;14.0;13.0;
52290;PMS5003;39663;45.432;28.050;2023-05-10T00:30:48;21.0;19.0;
52290;PMS5003;39663;45.432;28.050;2023-05-10T00:31:19;21.0;18.0;
52290;PMS5003;39663;45.432;28.050;2023-05-10T00:31:50;18.0;18.0;
52290;PMS5003;39663;45.432;28.050;2023-05-10T00:32:22;16.0;16.0;
52290;PMS5003;39663;45.432;28.050;2023-05-10T00:32:53;17.0;15.0;
52290;PMS5003;39663;45.432;28.050;2023-05-10T00:33:25;22.0;19.0;
52290;PMS5003;39663;45.432;28.050;2023-05-10T00:33:56;17.0;16.0;
52290;PMS5003;39663;45.432;28.050;2023-05-10T00:34:28;18.0;17.0;
52290;PMS5003;39663;45.432;28.050;2023-05-10T00:34:59;19.0;17.0;
52290;PMS5003;39663;45.432;28.050;2023-05-10T00:35:31;21.0;19.0;
52290;PMS5003;39663;45.432;28.050;2023-05-10T00:36:03;22.0;19.0;
52290;PMS5003;39663;45.432;28.050;2023-05-10T00:36:35;23.0;21.0;
52290;PMS5003;39663;45.432;28.050;2023-05-10T00:37:06;18.0;18.0;
52290;PMS5003;39663;45.432;28.050;2023-05-10T00:37:38;20.0;20.0;
52290;PMS5003;39663;45.432;28.050;2023-05-10T00:38:09;19.0;19.0;
52290;PMS5003;39663;45.432;28.050;2023-05-10T00:38:41;19.0;19.0;
52290;PMS5003;39663;45.432;28.050;2023-05-10T00:39:12;20.0;18.0;
52290;PMS5003;39663;45.432;28.050;2023-05-10T00:39:44;16.0;16.0;
52290;PMS5003;39663;45.432;28.050;2023-05-10T00:40:15;21.0;20.0;
52290;PMS5003;39663;45.432;28.050;2023-05-10T00:40:47;19.0;18.0;
52290;PMS5003;39663;45.432;28.050;2023-05-10T00:41:18;18.0;18.0;
52290;PMS5003;39663;45.432;28.050;2023-05-10T00:41:50;18.0;16.0;
52290;PMS5003;39663;45.432;28.050;2023-05-10T00:42:21;19.0;16.0;
52290;PMS5003;39663;45.432;28.050;2023-05-10T00:42:53;17.0;17.0;
52290;PMS5003;39663;45.432;28.050;2023-05-10T00:43:24;21.0;18.0;
52290;PMS5003;39663;45.432;28.050;2023-05-10T00:43:56;17.0;17.0;
52290;PMS5003;39663;45.432;28.050;2023-05-10T00:44:27;17.0;16.0;
52290;PMS5003;39663;45.432;28.050;2023-05-10T00:44:59;21.0;20.0;
52290;PMS5003;39663;45.432;28.050;2023-05-10T00:45:30;23.0;23.0;
52290;PMS5003;39663;45.432;28.050;2023-05-10T00:46:03;16.0;16.0;
52290;PMS5003;39663;45.432;28.050;2023-05-10T00:46:35;21.0;21.0;
52290;PMS5003;39663;45.432;28.050;2023-05-10T00:47:06;19.0;17.0;
52290;PMS5003;39663;45.432;28.050;2023-05-10T00:47:38;17.0;17.0;
52290;PMS5003;39663;45.432;28.050;2023-05-10T00:48:10;17.0;17.0;
52290;PMS5003;39663;45.432;28.050;2023-05-10T00:48:42;18.0;18.0;
52290;PMS5003;39663;45.432;28.050;2023-05-10T00:49:15;22.0;19.0;
52290;PMS5003;39663;45.432;28.050;2023-05-10T00:49:47;19.0;18.0;
52290;PMS5003;39663;45.432;28.050;2023-05-10T00:50:19;21.0;17.0;
52290;PMS5003;39663;45.432;28.050;2023-05-10T00:50:50;20.0;17.0;
52290;PMS5003;39663;45.432;28.050;2023-05-10T00:51:22;17.0;16.0;
52290;PMS5003;39663;45.432;28.050;2023-05-10T00:51:53;22.0;19.0;
52290;PMS5003;39663;45.432;28.050;2023-05-10T00:52:25;25.0;24.0;
52290;PMS5003;39663;45.432;28.050;2023-05-10T00:52:57;22.0;21.0;
52290;PMS5003;39663;45.432;28.050;2023-05-10T00:53:31;20.0;17.0;
52290;PMS5003;39663;45.432;28.050;2023-05-10T00:54:02;17.0;15.0;
52290;PMS5003;39663;45.432;28.050;2023-05-10T00:54:34;20.0;17.0;
52290;PMS5003;39663;45.432;28.050;2023-05-10T00:55:07;21.0;19.0;
52290;PMS5003;39663;45.432;28.050;2023-05-10T00:55:39;18.0;18.0;
52290;PMS5003;39663;45.432;28.050;2023-05-10T00:56:12;19.0;17.0;
52290;PMS5003;39663;45.432;28.050;2023-05-10T00:56:43;17.0;16.0;
52290;PMS5003;39663;45.432;28.050;2023-05-10T00:57:15;22.0;20.0;
52290;PMS5003;39663;45.432;28.050;2023-05-10T00:57:47;22.0;21.0;
52290;PMS5003;39663;45.432;28.050;2023-05-10T00:58:18;19.0;18.0;
52290;PMS5003;39663;45.432;28.050;2023-05-10T00:58:50;19.0;18.0;
52290;PMS5003;39663;45.432;28.050;2023-05-10T00:59:22;27.0;26.0;
52290;PMS5003;39663;45.432;28.050;2023-05-10T00:59:54;19.0;16.0;
52290;PMS5003;39663;45.432;28.050;2023-05-10T01:00:25;24.0;23.0;
52290;PMS5003;39663;45.432;28.050;2023-05-10T01:00:57;16.0;16.0;
52290;PMS5003;39663;45.432;28.050;2023-05-10T01:01:44;22.0;20.0;
52290;PMS5003;39663;45.432;28.050;2023-05-10T01:02:16;19.0;18.0;
52290;PMS5003;39663;45.432;28.050;2023-05-10T01:02:48;17.0;15.0;
52290;PMS5003;39663;45.432;28.050;2023-05-10T01:03:20;17.0;16.0;
52290;PMS5003;39663;45.432;28.050;2023-05-10T01:03:52;21.0;21.0;
52290;PMS5003;39663;45.432;28.050;2023-05-10T01:04:23;25.0;23.0;
52290;PMS5003;39663;45.432;28.050;2023-05-10T01:04:55;19.0;17.0;
52290;PMS5003;39663;45.432;28.050;2023-05-10T01:05:26;19.0;19.0;
52290;PMS5003;39663;45.432;28.050;2023-05-10T01:05:58;18.0;18.0;
52290;PMS5003;39663;45.432;28.050;2023-05-10T01:06:30;15.0;15.0;
52290;PMS5003;39663;45.432;28.050;2023-05-10T01:07:01;23.0;20.0;
52290;PMS5003;39663;45.432;28.050;2023-05-10T01:07:33;19.0;19.0;
52290;PMS5003;39663;45.432;28.050;2023-05-10T01:08:04;22.0;19.0;
52290;PMS5003;39663;45.432;28.050;2023-05-10T01:08:36;18.0;18.0;
52290;PMS5003;39663;45.432;28.050;2023-05-10T01:09:08;18.0;15.0;
52290;PMS5003;39663;45.432;28.050;2023-05-10T01:09:39;24.0;23.0;
52290;PMS5003;39663;45.432;28.050;2023-05-10T01:10:11;18.0;18.0;
52290;PMS5003;39663;45.432;28.050;2023-05-10T01:10:43;18.0;17.0;
52290;PMS5003;39663;45.432;28.050;2023-05-10T01:11:15;18.0;16.0;
52290;PMS5003;39663;45.432;28.050;2023-05-10T01:11:46;20.0;16.0;
52290;PMS5003;39663;45.432;28.050;2023-05-10T01:12:19;24.0;23.0;
52290;PMS5003;39663;45.432;28.050;2023-05-10T01:12:51;19.0;16.0;
52290;PMS5003;39663;45.432;28.050;2023-05-10T01:13:26;23.0;21.0;
52290;PMS5003;39663;45.432;28.050;2023-05-10T01:14:01;18.0;17.0;
52290;PMS5003;39663;45.432;28.050;2023-05-10T01:14:34;21.0;20.0;
52290;PMS5003;39663;45.432;28.050;2023-05-10T01:15:06;25.0;23.0;
52290;PMS5003;39663;45.432;28.050;2023-05-10T01:15:39;26.0;20.0;
52290;PMS5003;39663;45.432;28.050;2023-05-10T01:16:11;14.0;14.0;
52290;PMS5003;39663;45.432;28.050;2023-05-10T01:16:43;18.0;18.0;
52290;PMS5003;39663;45.432;28.050;2023-05-10T01:17:18;17.0;17.0;
52290;PMS5003;39663;45.432;28.050;2023-05-10T01:17:51;25.0;25.0;
52290;PMS5003;39663;45.432;28.050;2023-05-10T01:18:24;16.0;16.0;
52290;PMS5003;39663;45.432;28.050;2023-05-10T01:18:57;19.0;17.0;
52290;PMS5003;39663;45.432;28.050;2023-05-10T01:19:29;16.0;15.0;
52290;PMS5003;39663;45.432;28.050;2023-05-10T01:20:05;16.0;16.0;
52290;PMS5003;39663;45.432;28.050;2023-05-10T01:20:40;15.0;15.0;
52290;PMS5003;39663;45.432;28.050;2023-05-10T01:21:33;22.0;20.0;
52290;PMS5003;39663;45.432;28.050;2023-05-10T01:22:19;19.0;19.0;
52290;PMS5003;39663;45.432;28.050;2023-05-10T01:23:12;19.0;19.0;
52290;PMS5003;39663;45.432;28.050;2023-05-10T01:24:09;22.0;19.0;
52290;PMS5003;39663;45.432;28.050;2023-05-10T01:25:07;21.0;21.0;
52290;PMS5003;39663;45.432;28.050;2023-05-10T01:25:55;20.0;17.0;
52290;PMS5003;39663;45.432;28.050;2023-05-10T01:26:51;19.0;19.0;
52290;PMS5003;39663;45.432;28.050;2023-05-10T01:27:48;19.0;18.0;
52290;PMS5003;39663;45.432;28.050;2023-05-10T01:30:06;17.0;17.0;
52290;PMS5003;39663;45.432;28.050;2023-05-10T01:31:19;26.0;21.0;
52290;PMS5003;39663;45.432;28.050;2023-05-10T01:32:06;21.0;21.0;
52290;PMS5003;39663;45.432;28.050;2023-05-10T01:32:48;22.0;20.0;
52290;PMS5003;39663;45.432;28.050;2023-05-10T01:33:28;19.0;18.0;
52290;PMS5003;39663;45.432;28.050;2023-05-10T01:34:08;18.0;16.0;
52290;PMS5003;39663;45.432;28.050;2023-05-10T01:34:46;16.0;16.0;
52290;PMS5003;39663;45.432;28.050;2023-05-10T01:35:28;20.0;19.0;
52290;PMS5003;39663;45.432;28.050;2023-05-10T01:36:08;18.0;17.0;
52290;PMS5003;39663;45.432;28.050;2023-05-10T01:36:51;17.0;17.0;
52290;PMS5003;39663;45.432;28.050;2023-05-10T01:37:33;18.0;17.0;
52290;PMS5003;39663;45.432;28.050;2023-05-10T01:38:17;17.0;15.0;
52290;PMS5003;39663;45.432;28.050;2023-05-10T01:38:55;22.0;19.0;
52290;PMS5003;39663;45.432;28.050;2023-05-10T01:39:33;23.0;19.0;
52290;PMS5003;39663;45.432;28.050;2023-05-10T01:40:17;16.0;16.0;
52290;PMS5003;39663;45.432;28.050;2023-05-10T01:41:00;20.0;20.0;
52290;PMS5003;39663;45.432;28.050;2023-05-10T01:41:40;18.0;17.0;
52290;PMS5003;39663;45.432;28.050;2023-05-10T01:42:24;23.0;19.0;
52290;PMS5003;39663;45.432;28.050;2023-05-10T01:42:59;18.0;17.0;
52290;PMS5003;39663;45.432;28.050;2023-05-10T01:43:36;19.0;18.0;
52290;PMS5003;39663;45.432;28.050;2023-05-10T01:44:16;18.0;17.0;
52290;PMS5003;39663;45.432;28.050;2023-05-10T01:44:56;22.0;20.0;
52290;PMS5003;39663;45.432;28.050;2023-05-10T01:45:37;20.0;18.0;
52290;PMS5003;39663;45.432;28.050;2023-05-10T01:46:20;22.0;22.0;
52290;PMS5003;39663;45.432;28.050;2023-05-10T01:46:57;23.0;20.0;
52290;PMS5003;39663;45.432;28.050;2023-05-10T01:47:37;22.0;20.0;
52290;PMS5003;39663;45.432;28.050;2023-05-10T01:48:12;23.0;23.0;
52290;PMS5003;39663;45.432;28.050;2023-05-10T01:48:47;25.0;23.0;
52290;PMS5003;39663;45.432;28.050;2023-05-10T01:49:23;32.0;31.0;
52290;PMS5003;39663;45.432;28.050;2023-05-10T01:49:57;29.0;24.0;
52290;PMS5003;39663;45.432;28.050;2023-05-10T01:50:36;24.0;23.0;
52290;PMS5003;39663;45.432;28.050;2023-05-10T01:51:10;27.0;27.0;
52290;PMS5003;39663;45.432;28.050;2023-05-10T01:51:44;22.0;22.0;
52290;PMS5003;39663;45.432;28.050;2023-05-10T01:52:22;22.0;21.0;
52290;PMS5003;39663;45.432;28.050;2023-05-10T01:53:00;22.0;21.0;
52290;PMS5003;39663;45.432;28.050;2023-05-10T01:53:35;20.0;17.0;
52290;PMS5003;39663;45.432;28.050;2023-05-10T01:54:09;26.0;20.0;
52290;PMS5003;39663;45.432;28.050;2023-05-10T01:54:44;26.0;24.0;
52290;PMS5003;39663;45.432;28.050;2023-05-10T01:55:20;21.0;20.0;
52290;PMS5003;39663;45.432;28.050;2023-05-10T01:55:55;23.0;23.0;
52290;PMS5003;39663;45.432;28.050;2023-05-10T01:56:29;21.0;21.0;
52290;PMS5003;39663;45.432;28.050;2023-05-10T01:57:05;21.0;20.0;
52290;PMS5003;39663;45.432;28.050;2023-05-10T01:57:39;28.0;25.0;
52290;PMS5003;39663;45.432;28.050;2023-05-10T01:58:15;27.0;24.0;
52290;PMS5003;39663;45.432;28.050;2023-05-10T01:58:51;22.0;20.0;
52290;PMS5003;39663;45.432;28.050;2023-05-10T01:59:26;20.0;17.0;
52290;PMS5003;39663;45.432;28.050;2023-05-10T02:00:01;25.0;25.0;
52290;PMS5003;39663;45.432;28.050;2023-05-10T02:00:34;19.0;19.0;
52290;PMS5003;39663;45.432;28.050;2023-05-10T02:01:07;20.0;19.0;
52290;PMS5003;39663;45.432;28.050;2023-05-10T02:01:40;20.0;20.0;
52290;PMS5003;39663;45.432;28.050;2023-05-10T02:02:13;20.0;20.0;
52290;PMS5003;39663;45.432;28.050;2023-05-10T02:02:48;22.0;22.0;
52290;PMS5003;39663;45.432;28.050;2023-05-10T02:03:22;19.0;18.0;
52290;PMS5003;39663;45.432;28.050;2023-05-10T02:03:56;22.0;22.0;
52290;PMS5003;39663;45.432;28.050;2023-05-10T02:04:30;21.0;20.0;
52290;PMS5003;39663;45.432;28.050;2023-05-10T02:05:05;17.0;16.0;
52290;PMS5003;39663;45.432;28.050;2023-05-10T02:05:38;25.0;24.0;
52290;PMS5003;39663;45.432;28.050;2023-05-10T02:06:12;19.0;19.0;
52290;PMS5003;39663;45.432;28.050;2023-05-10T02:06:45;20.0;18.0;
52290;PMS5003;39663;45.432;28.050;2023-05-10T02:07:18;21.0;18.0;
52290;PMS5003;39663;45.432;28.050;2023-05-10T02:07:51;25.0;23.0;
52290;PMS5003;39663;45.432;28.050;2023-05-10T02:08:24;16.0;16.0;
52290;PMS5003;39663;45.432;28.050;2023-05-10T02:08:56;18.0;18.0;
52290;PMS5003;39663;45.432;28.050;2023-05-10T02:09:28;22.0;18.0;
52290;PMS5003;39663;45.432;28.050;2023-05-10T02:10:02;19.0;19.0;
52290;PMS5003;39663;45.432;28.050;2023-05-10T02:10:36;21.0;21.0;
52290;PMS5003;39663;45.432;28.050;2023-05-10T02:11:10;21.0;18.0;
52290;PMS5003;39663;45.432;28.050;2023-05-10T02:11:44;20.0;18.0;
52290;PMS5003;39663;45.432;28.050;2023-05-10T02:12:18;26.0;25.0;
52290;PMS5003;39663;45.432;28.050;2023-05-10T02:12:53;18.0;18.0;
52290;PMS5003;39663;45.432;28.050;2023-05-10T02:13:25;16.0;16.0;
52290;PMS5003;39663;45.432;28.050;2023-05-10T02:14:00;18.0;18.0;
52290;PMS5003;39663;45.432;28.050;2023-05-10T02:14:34;23.0;21.0;
52290;PMS5003;39663;45.432;28.050;2023-05-10T02:15:07;19.0;17.0;
52290;PMS5003;39663;45.432;28.050;2023-05-10T02:15:42;18.0;17.0;
52290;PMS5003;39663;45.432;28.050;2023-05-10T02:16:16;21.0;21.0;
52290;PMS5003;39663;45.432;28.050;2023-05-10T02:17:08;21.0;20.0;
52290;PMS5003;39663;45.432;28.050;2023-05-10T02:17:40;18.0;16.0;
52290;PMS5003;39663;45.432;28.050;2023-05-10T02:18:13;24.0;23.0;
52290;PMS5003;39663;45.432;28.050;2023-05-10T02:18:46;19.0;18.0;
52290;PMS5003;39663;45.432;28.050;2023-05-10T02:19:20;20.0;19.0;
52290;PMS5003;39663;45.432;28.050;2023-05-10T02:19:54;21.0;20.0;
52290;PMS5003;39663;45.432;28.050;2023-05-10T02:20:27;19.0;19.0;
52290;PMS5003;39663;45.432;28.050;2023-05-10T02:21:02;24.0;21.0;
52290;PMS5003;39663;45.432;28.050;2023-05-10T02:21:35;20.0;20.0;
52290;PMS5003;39663;45.432;28.050;2023-05-10T02:22:09;26.0;23.0;
52290;PMS5003;39663;45.432;28.050;2023-05-10T02:22:41;21.0;20.0;
52290;PMS5003;39663;45.432;28.050;2023-05-10T02:23:13;21.0;19.0;
52290;PMS5003;39663;45.432;28.050;2023-05-10T02:23:48;24.0;18.0;
52290;PMS5003;39663;45.432;28.050;2023-05-10T02:24:22;18.0;18.0;
52290;PMS5003;39663;45.432;28.050;2023-05-10T02:24:55;21.0;19.0;
52290;PMS5003;39663;45.432;28.050;2023-05-10T02:25:30;19.0;19.0;
52290;PMS5003;39663;45.432;28.050;2023-05-10T02:26:03;26.0;25.0;
52290;PMS5003;39663;45.432;28.050;2023-05-10T02:26:36;20.0;18.0;
52290;PMS5003;39663;45.432;28.050;2023-05-10T02:27:09;20.0;17.0;
52290;PMS5003;39663;45.432;28.050;2023-05-10T02:27:42;19.0;18.0;
52290;PMS5003;39663;45.432;28.050;2023-05-10T02:28:15;22.0;21.0;
52290;PMS5003;39663;45.432;28.050;2023-05-10T02:28:48;22.0;21.0;
52290;PMS5003;39663;45.432;28.050;2023-05-10T02:29:21;25.0;21.0;
52290;PMS5003;39663;45.432;28.050;2023-05-10T02:29:54;17.0;15.0;
52290;PMS5003;39663;45.432;28.050;2023-05-10T02:30:26;25.0;21.0;
52290;PMS5003;39663;45.432;28.050;2023-05-10T02:30:59;25.0;21.0;
52290;PMS5003;39663;45.432;28.050;2023-05-10T02:31:31;19.0;19.0;
52290;PMS5003;39663;45.432;28.050;2023-05-10T02:32:04;18.0;16.0;
52290;PMS5003;39663;45.432;28.050;2023-05-10T02:32:36;24.0;19.0;
52290;PMS5003;39663;45.432;28.050;2023-05-10T02:33:08;21.0;21.0;
52290;PMS5003;39663;45.432;28.050;2023-05-10T02:33:41;23.0;22.0;
52290;PMS5003;39663;45.432;28.050;2023-05-10T02:34:15;21.0;19.0;
52290;PMS5003;39663;45.432;28.050;2023-05-10T02:34:47;19.0;17.0;
52290;PMS5003;39663;45.432;28.050;2023-05-10T02:35:19;25.0;23.0;
52290;PMS5003;39663;45.432;28.050;2023-05-10T02:35:52;26.0;25.0;
52290;PMS5003;39663;45.432;28.050;2023-05-10T02:36:25;20.0;19.0;
52290;PMS5003;39663;45.432;28.050;2023-05-10T02:36:57;25.0;22.0;
52290;PMS5003;39663;45.432;28.050;2023-05-10T02:37:31;20.0;20.0;
52290;PMS5003;39663;45.432;28.050;2023-05-10T02:38:04;24.0;24.0;
52290;PMS5003;39663;45.432;28.050;2023-05-10T02:38:36;19.0;19.0;
52290;PMS5003;39663;45.432;28.050;2023-05-10T02:39:09;17.0;17.0;
52290;PMS5003;39663;45.432;28.050;2023-05-10T02:39:41;27.0;19.0;
52290;PMS5003;39663;45.432;28.050;2023-05-10T02:40:16;24.0;23.0;
52290;PMS5003;39663;45.432;28.050;2023-05-10T02:40:48;23.0;21.0;
52290;PMS5003;39663;45.432;28.050;2023-05-10T02:41:21;18.0;18.0;
52290;PMS5003;39663;45.432;28.050;2023-05-10T02:41:55;22.0;22.0;
52290;PMS5003;39663;45.432;28.050;2023-05-10T02:42:28;22.0;20.0;
52290;PMS5003;39663;45.432;28.050;2023-05-10T02:43:03;21.0;20.0;
52290;PMS5003;39663;45.432;28.050;2023-05-10T02:43:36;19.0;18.0;
52290;PMS5003;39663;45.432;28.050;2023-05-10T02:44:10;18.0;18.0;
52290;PMS5003;39663;45.432;28.050;2023-05-10T02:44:45;24.0;18.0;
52290;PMS5003;39663;45.432;28.050;2023-05-10T02:45:21;22.0;19.0;
52290;PMS5003;39663;45.432;28.050;2023-05-10T02:45:56;22.0;21.0;
52290;PMS5003;39663;45.432;28.050;2023-05-10T02:46:28;23.0;20.0;
52290;PMS5003;39663;45.432;28.050;2023-05-10T02:47:00;23.0;20.0;
52290;PMS5003;39663;45.432;28.050;2023-05-10T02:47:32;21.0;20.0;
52290;PMS5003;39663;45.432;28.050;2023-05-10T02:48:04;18.0;18.0;
52290;PMS5003;39663;45.432;28.050;2023-05-10T02:48:36;22.0;21.0;
52290;PMS5003;39663;45.432;28.050;2023-05-10T02:49:08;21.0;19.0;
52290;PMS5003;39663;45.432;28.050;2023-05-10T02:49:39;23.0;22.0;
52290;PMS5003;39663;45.432;28.050;2023-05-10T02:50:11;24.0;21.0;
52290;PMS5003;39663;45.432;28.050;2023-05-10T02:50:43;23.0;22.0;
52290;PMS5003;39663;45.432;28.050;2023-05-10T02:51:16;25.0;25.0;
52290;PMS5003;39663;45.432;28.050;2023-05-10T02:51:51;27.0;24.0;
52290;PMS5003;39663;45.432;28.050;2023-05-10T02:52:29;24.0;23.0;
52290;PMS5003;39663;45.432;28.050;2023-05-10T02:53:09;26.0;25.0;
52290;PMS5003;39663;45.432;28.050;2023-05-10T02:53:45;26.0;22.0;
52290;PMS5003;39663;45.432;28.050;2023-05-10T02:54:20;34.0;31.0;
52290;PMS5003;39663;45.432;28.050;2023-05-10T02:54:55;25.0;24.0;
52290;PMS5003;39663;45.432;28.050;2023-05-10T02:55:32;25.0;21.0;
52290;PMS5003;39663;45.432;28.050;2023-05-10T02:56:09;22.0;21.0;
52290;PMS5003;39663;45.432;28.050;2023-05-10T02:56:51;27.0;27.0;
52290;PMS5003;39663;45.432;28.050;2023-05-10T02:57:28;24.0;23.0;
52290;PMS5003;39663;45.432;28.050;2023-05-10T02:58:04;29.0;29.0;
52290;PMS5003;39663;45.432;28.050;2023-05-10T02:58:36;25.0;23.0;
52290;PMS5003;39663;45.432;28.050;2023-05-10T02:59:08;29.0;26.0;
52290;PMS5003;39663;45.432;28.050;2023-05-10T02:59:39;28.0;25.0;
52290;PMS5003;39663;45.432;28.050;2023-05-10T03:00:11;29.0;25.0;
52290;PMS5003;39663;45.432;28.050;2023-05-10T03:00:43;28.0;26.0;
52290;PMS5003;39663;45.432;28.050;2023-05-10T03:01:14;25.0;25.0;
52290;PMS5003;39663;45.432;28.050;2023-05-10T03:01:46;26.0;26.0;
52290;PMS5003;39663;45.432;28.050;2023-05-10T03:02:17;31.0;27.0;
52290;PMS5003;39663;45.432;28.050;2023-05-10T03:02:50;29.0;27.0;
52290;PMS5003;39663;45.432;28.050;2023-05-10T03:03:22;29.0;29.0;
52290;PMS5003;39663;45.432;28.050;2023-05-10T03:03:53;28.0;25.0;
52290;PMS5003;39663;45.432;28.050;2023-05-10T03:04:25;26.0;23.0;
52290;PMS5003;39663;45.432;28.050;2023-05-10T03:04:57;22.0;20.0;
52290;PMS5003;39663;45.432;28.050;2023-05-10T03:05:28;22.0;20.0;
52290;PMS5003;39663;45.432;28.050;2023-05-10T03:06:00;29.0;26.0;
52290;PMS5003;39663;45.432;28.050;2023-05-10T03:06:31;21.0;21.0;
52290;PMS5003;39663;45.432;28.050;2023-05-10T03:07:03;29.0;26.0;
52290;PMS5003;39663;45.432;28.050;2023-05-10T03:07:35;27.0;26.0;
52290;PMS5003;39663;45.432;28.050;2023-05-10T03:08:06;22.0;22.0;
52290;PMS5003;39663;45.432;28.050;2023-05-10T03:08:38;26.0;25.0;
52290;PMS5003;39663;45.432;28.050;2023-05-10T03:09:10;27.0;26.0;
52290;PMS5003;39663;45.432;28.050;2023-05-10T03:09:43;27.0;24.0;
52290;PMS5003;39663;45.432;28.050;2023-05-10T03:10:15;31.0;25.0;
52290;PMS5003;39663;45.432;28.050;2023-05-10T03:10:58;28.0;28.0;
52290;PMS5003;39663;45.432;28.050;2023-05-10T03:11:47;31.0;29.0;
52290;PMS5003;39663;45.432;28.050;2023-05-10T03:12:29;29.0;28.0;
52290;PMS5003;39663;45.432;28.050;2023-05-10T03:13:12;24.0;21.0;
52290;PMS5003;39663;45.432;28.050;2023-05-10T03:13:56;24.0;24.0;
52290;PMS5003;39663;45.432;28.050;2023-05-10T03:14:42;28.0;25.0;
52290;PMS5003;39663;45.432;28.050;2023-05-10T03:15:22;26.0;26.0;
52290;PMS5003;39663;45.432;28.050;2023-05-10T03:16:04;22.0;19.0;
52290;PMS5003;39663;45.432;28.050;2023-05-10T03:16:42;27.0;23.0;
52290;PMS5003;39663;45.432;28.050;2023-05-10T03:17:18;27.0;22.0;
52290;PMS5003;39663;45.432;28.050;2023-05-10T03:17:59;22.0;21.0;
52290;PMS5003;39663;45.432;28.050;2023-05-10T03:18:39;29.0;25.0;
52290;PMS5003;39663;45.432;28.050;2023-05-10T03:19:16;29.0;25.0;
52290;PMS5003;39663;45.432;28.050;2023-05-10T03:19:56;27.0;23.0;
52290;PMS5003;39663;45.432;28.050;2023-05-10T03:20:30;23.0;21.0;
52290;PMS5003;39663;45.432;28.050;2023-05-10T03:21:07;26.0;26.0;
52290;PMS5003;39663;45.432;28.050;2023-05-10T03:21:41;25.0;23.0;
52290;PMS5003;39663;45.432;28.050;2023-05-10T03:22:19;23.0;22.0;
52290;PMS5003;39663;45.432;28.050;2023-05-10T03:22:55;23.0;22.0;
52290;PMS5003;39663;45.432;28.050;2023-05-10T03:23:35;20.0;20.0;
52290;PMS5003;39663;45.432;28.050;2023-05-10T03:24:10;25.0;24.0;
52290;PMS5003;39663;45.432;28.050;2023-05-10T03:24:43;29.0;25.0;
52290;PMS5003;39663;45.432;28.050;2023-05-10T03:25:16;24.0;23.0;
52290;PMS5003;39663;45.432;28.050;2023-05-10T03:25:50;25.0;21.0;
52290;PMS5003;39663;45.432;28.050;2023-05-10T03:26:23;19.0;19.0;
52290;PMS5003;39663;45.432;28.050;2023-05-10T03:26:57;29.0;23.0;
52290;PMS5003;39663;45.432;28.050;2023-05-10T03:27:44;25.0;22.0;
52290;PMS5003;39663;45.432;28.050;2023-05-10T03:28:17;24.0;21.0;
52290;PMS5003;39663;45.432;28.050;2023-05-10T03:28:51;27.0;25.0;
52290;PMS5003;39663;45.432;28.050;2023-05-10T03:29:24;37.0;33.0;
52290;PMS5003;39663;45.432;28.050;2023-05-10T03:29:57;28.0;26.0;
52290;PMS5003;39663;45.432;28.050;2023-05-10T03:30:30;28.0;26.0;
52290;PMS5003;39663;45.432;28.050;2023-05-10T03:31:02;22.0;21.0;
52290;PMS5003;39663;45.432;28.050;2023-05-10T03:31:34;31.0;28.0;
52290;PMS5003;39663;45.432;28.050;2023-05-10T03:32:06;27.0;25.0;